プラハ の空港の天気 - METARとTAF

ルズィニエ国際空港(プラハ) ( LKPR / PRG ) - チェコ プラハ
飛行場実況気象(Metar)
観測時間08/05 23:30 CEST (08/05 21:30 UTC)
風向・風速南西 1m/s
視程10km以上
天気現象
なし
気温15℃
湿度77%
気圧1021hPa
METARLKPR 052130Z 23001KT CAVOK 15/11 Q1021 NOSIG
過去の天気等 Google飛行場航空写真 Wunderground天気予報

過去48時間のMETAR

飛行場予報(TAF)
発表時間: 8/05 19:00 CEST (8/05 17:00 UTC)
予報対象時間: 5日20時 CEST ~ 7日2時 CEST
風向・風速北東 3m/s
視程10km以上
なし
5日23時 CEST ~ 6日8時 CEST に一時的に
風向・風速南東 3m/s
TAF LKPR 051700Z 0518/0700 04006KT CAVOK
TEMPO 0521/0606 13006KT